Terminal Aerodrome Forecast
Issued by NWS St Louis, MO

Home | Current Version | Previous Version | Text Only | Print | Product List | Glossary On
Versions: 1 2 3 4 5 6 7 8 9 10 11 12 13 14 15 16 17 18 19 20
968
FTUS43 KLSX 031727
TAFSTL
TAF
KSTL 031727Z 0318/0424 28016G26KT P6SM OVC025
     FM040000 29012KT P6SM OVC025
     FM040400 29009KT P6SM BKN035
     FM041800 26007KT P6SM FEW250=

USA.gov is the U.S. government's official web portal to all federal, state and local government web resources and services.